Time;durP1;ratioP1;P1;durP2;ratioP2;P2;SDS_P1;SDS_P2;PMS_P1;PMS_P2;Temp;Humidity;BMP_temperature;BMP_pressure;BME280_temperature;BME280_humidity;BME280_pressure;Samples;Min_cycle;Max_cycle;Signal;HPM_P1;HPM_P2
2021/06/21 00:02:54;;;;;;;24.23;4.63;;;21.50;99.40;;;;;;5079362;28;20035;-69
2021/06/21 00:05:58;;;;;;;23.48;5.28;;;21.50;99.20;;;;;;5090923;28;20395;-69
2021/06/21 00:09:04;;;;;;;23.23;5.45;;;21.60;99.00;;;;;;5071380;28;20043;-70
2021/06/21 00:12:10;;;;;;;19.50;5.07;;;21.60;98.80;;;;;;5075119;28;20051;-69
2021/06/21 00:15:24;;;;;;;22.45;4.72;;;21.50;98.70;;;;;;5086437;28;20047;-69
2021/06/21 00:18:28;;;;;;;25.90;5.38;;;21.40;98.30;;;;;;5091182;28;20418;-69
2021/06/21 00:21:32;;;;;;;25.80;5.18;;;21.50;98.20;;;;;;5076739;28;20047;-69
2021/06/21 00:24:36;;;;;;;22.15;4.80;;;21.40;98.20;;;;;;5070715;28;20067;-69
2021/06/21 00:27:46;;;;;;;26.92;5.40;;;21.20;98.90;;;;;;5070802;28;20380;-68
2021/06/21 00:30:51;;;;;;;26.48;5.05;;;21.10;99.10;;;;;;5088048;28;20035;-69
2021/06/21 00:33:55;;;;;;;17.98;4.65;;;21.10;98.50;;;;;;5085794;28;20058;-69
2021/06/21 00:36:59;;;;;;;15.52;4.70;;;21.10;98.30;;;;;;5090702;28;20043;-69
2021/06/21 00:40:07;;;;;;;26.80;5.13;;;21.30;98.00;;;;;;5090558;28;20043;-69
2021/06/21 00:43:11;;;;;;;19.67;4.38;;;21.20;98.40;;;;;;5089806;28;20390;-69
2021/06/21 00:46:15;;;;;;;14.02;5.00;;;21.10;98.80;;;;;;5070780;28;20070;-69
2021/06/21 00:49:20;;;;;;;17.77;4.30;;;21.00;99.20;;;;;;5069911;28;20420;-69
2021/06/21 00:52:24;;;;;;;21.45;5.20;;;20.80;99.50;;;;;;5069884;28;20044;-69
2021/06/21 00:55:30;;;;;;;21.75;4.32;;;20.70;99.70;;;;;;5084476;28;20051;-69
2021/06/21 00:58:35;;;;;;;20.95;4.32;;;20.70;99.90;;;;;;5090715;28;20035;-70
2021/06/21 01:01:40;;;;;;;22.40;5.43;;;20.60;99.90;;;;;;5076057;28;20044;-69
2021/06/21 01:04:44;;;;;;;17.50;5.40;;;20.50;99.90;;;;;;5070267;28;20067;-69
2021/06/21 01:07:48;;;;;;;17.17;4.90;;;20.50;99.90;;;;;;5070061;28;20415;-69
2021/06/21 01:10:55;;;;;;;13.20;5.43;;;20.50;99.90;;;;;;5084073;28;20058;-69
2021/06/21 01:14:20;;;;;;;18.90;5.72;;;20.40;99.90;;;;;;5080500;28;20036;-69
2021/06/21 01:17:36;;;;;;;25.67;5.15;;;20.40;99.90;;;;;;5069805;28;20073;-69
2021/06/21 01:21:25;;;;;;;17.77;4.45;;;20.40;99.90;;;;;;5069085;28;20040;-69
2021/06/21 01:24:57;;;;;;;30.85;6.35;;;20.40;99.90;;;;;;5031944;28;20048;-69
2021/06/21 01:28:13;;;;;;;24.23;6.70;;;20.40;99.90;;;;;;5075629;28;20039;-69
2021/06/21 01:31:20;;;;;;;23.90;5.93;;;20.50;99.90;;;;;;5069162;28;20059;-69
2021/06/21 01:34:28;;;;;;;29.45;5.05;;;20.50;99.80;;;;;;5070247;28;20047;-69
2021/06/21 01:37:33;;;;;;;28.92;5.47;;;20.50;99.40;;;;;;5068990;28;20044;-69
2021/06/21 01:40:42;;;;;;;20.02;5.00;;;20.50;99.30;;;;;;5070819;28;20048;-69
2021/06/21 01:43:50;;;;;;;23.98;4.15;;;20.40;99.50;;;;;;5089862;28;20040;-69
2021/06/21 01:46:57;;;;;;;16.92;4.10;;;20.40;99.30;;;;;;5073180;28;20052;-69
2021/06/21 01:50:04;;;;;;;17.48;3.92;;;20.40;99.10;;;;;;5073557;28;20047;-69
2021/06/21 01:53:14;;;;;;;28.92;4.65;;;20.50;99.00;;;;;;5069669;28;20690;-69
2021/06/21 01:56:22;;;;;;;19.77;4.88;;;20.40;98.60;;;;;;5069564;28;20478;-69
2021/06/21 01:59:29;;;;;;;24.55;5.85;;;20.40;98.90;;;;;;5078284;28;20051;-68
2021/06/21 02:02:35;;;;;;;15.48;3.83;;;20.40;99.70;;;;;;5092023;28;20043;-68
2021/06/21 02:05:41;;;;;;;16.45;5.28;;;20.30;99.50;;;;;;5094341;28;20051;-69
2021/06/21 02:08:48;;;;;;;23.38;4.40;;;20.30;99.50;;;;;;5080047;28;20375;-69
2021/06/21 02:11:54;;;;;;;16.90;4.43;;;20.30;99.00;;;;;;5076950;28;20039;-69
2021/06/21 02:15:01;;;;;;;17.88;3.95;;;20.30;99.20;;;;;;5093413;28;20433;-69
2021/06/21 02:18:08;;;;;;;16.70;4.80;;;20.30;99.30;;;;;;5092075;28;20058;-68
2021/06/21 02:21:13;;;;;;;31.90;4.40;;;20.10;99.70;;;;;;5084287;28;20039;-68
2021/06/21 02:24:18;;;;;;;21.13;5.35;;;20.00;99.70;;;;;;5072598;28;20590;-69
2021/06/21 02:27:23;;;;;;;22.75;3.90;;;20.10;99.20;;;;;;5090574;28;20043;-69
2021/06/21 02:30:28;;;;;;;14.15;3.88;;;20.10;99.20;;;;;;5078145;28;20498;-69
2021/06/21 02:33:32;;;;;;;22.63;4.30;;;20.00;99.10;;;;;;5093116;28;20039;-69
2021/06/21 02:36:36;;;;;;;16.38;4.35;;;20.10;98.80;;;;;;5092405;28;20047;-69
2021/06/21 02:39:41;;;;;;;23.55;4.05;;;20.20;98.40;;;;;;5079877;28;20039;-69
2021/06/21 02:42:45;;;;;;;17.65;3.53;;;20.30;98.20;;;;;;5072631;28;20505;-69
2021/06/21 02:45:49;;;;;;;14.52;3.67;;;20.40;98.00;;;;;;5071959;28;20119;-69
2021/06/21 02:48:53;;;;;;;18.67;3.38;;;20.50;97.70;;;;;;5083074;28;20035;-69
2021/06/21 02:52:26;;;;;;;23.50;4.03;;;20.50;97.70;;;;;;5091456;28;20353;-69
2021/06/21 02:55:44;;;;;;;18.73;3.33;;;20.40;97.70;;;;;;5072694;28;20047;-69
2021/06/21 02:58:57;;;;;;;13.95;3.30;;;20.50;97.40;;;;;;5090672;28;20391;-69
2021/06/21 03:02:02;;;;;;;12.90;3.72;;;20.50;97.40;;;;;;5090446;28;20039;-69
2021/06/21 03:05:22;;;;;;;17.63;3.85;;;20.40;97.50;;;;;;5089796;28;20383;-69
2021/06/21 03:08:28;;;;;;;20.88;4.93;;;20.30;97.90;;;;;;5072253;28;20056;-69
2021/06/21 03:11:33;;;;;;;13.88;3.85;;;20.00;98.80;;;;;;5071452;28;20392;-69
2021/06/21 03:14:44;;;;;;;20.17;4.47;;;19.80;99.60;;;;;;5071843;28;20043;-69
2021/06/21 03:17:52;;;;;;;21.63;4.20;;;19.70;99.90;;;;;;5072175;28;21360;-69
2021/06/21 03:20:59;;;;;;;18.80;4.15;;;19.50;99.90;;;;;;5071564;28;20258;-68
2021/06/21 03:24:04;;;;;;;18.15;4.57;;;19.40;99.90;;;;;;5086135;28;20055;-68
2021/06/21 03:27:08;;;;;;;18.25;4.30;;;19.20;99.90;;;;;;5072285;28;20043;-69
2021/06/21 03:30:14;;;;;;;50.17;6.85;;;19.20;99.90;;;;;;5090802;28;20165;-69
2021/06/21 03:33:19;;;;;;;21.55;5.03;;;18.90;99.90;;;;;;5086950;28;20521;-69
2021/06/21 03:36:23;;;;;;;12.75;4.38;;;18.80;99.90;;;;;;5091891;28;20043;-68
2021/06/21 03:39:27;;;;;;;18.05;5.35;;;18.70;99.90;;;;;;5071593;28;20047;-69
2021/06/21 03:42:31;;;;;;;14.68;4.78;;;18.70;99.90;;;;;;5071810;28;20047;-68
2021/06/21 03:45:35;;;;;;;14.35;5.13;;;18.60;99.90;;;;;;5071067;28;20048;-68
2021/06/21 03:48:40;;;;;;;11.85;4.57;;;18.50;99.90;;;;;;5084183;28;20067;-68
2021/06/21 03:51:44;;;;;;;15.15;4.70;;;18.50;99.90;;;;;;5087149;28;20031;-68
2021/06/21 03:54:48;;;;;;;18.33;5.88;;;18.50;99.90;;;;;;5089941;28;20039;-69
2021/06/21 03:57:54;;;;;;;24.73;6.07;;;18.40;99.90;;;;;;5090230;28;20047;-68
2021/06/21 04:00:59;;;;;;;17.98;5.78;;;18.30;99.90;;;;;;5089277;28;20047;-69
2021/06/21 04:04:03;;;;;;;17.17;4.95;;;18.30;99.90;;;;;;5084476;28;20048;-69
2021/06/21 04:07:08;;;;;;;16.42;5.90;;;18.20;99.90;;;;;;5070568;28;20040;-69
2021/06/21 04:10:15;;;;;;;12.65;5.70;;;18.30;99.90;;;;;;5086031;28;20043;-68
2021/06/21 04:13:21;;;;;;;16.90;5.40;;;18.20;99.90;;;;;;5086643;28;20073;-69
2021/06/21 04:16:25;;;;;;;20.30;5.72;;;18.10;99.90;;;;;;5090499;28;20043;-68
2021/06/21 04:19:29;;;;;;;15.80;5.28;;;18.10;99.90;;;;;;5086731;28;20039;-69
2021/06/21 04:22:34;;;;;;;18.33;5.93;;;18.00;99.90;;;;;;5087509;28;20039;-69
2021/06/21 04:25:39;;;;;;;13.07;5.25;;;18.10;99.90;;;;;;5089694;28;20035;-69
2021/06/21 04:28:44;;;;;;;11.90;4.43;;;18.00;99.90;;;;;;5089620;28;20059;-69
2021/06/21 04:31:48;;;;;;;16.38;4.97;;;18.20;99.90;;;;;;5075799;28;20291;-69
2021/06/21 04:34:52;;;;;;;130.25;81.63;;;18.20;99.90;;;;;;5070138;28;20581;-69
2021/06/21 04:37:57;;;;;;;93.47;50.00;;;18.40;99.90;;;;;;5076768;28;20047;-69
2021/06/21 04:41:01;;;;;;;59.55;34.85;;;18.50;99.90;;;;;;5081797;28;20043;-69
2021/06/21 04:44:06;;;;;;;18.25;8.40;;;18.60;99.90;;;;;;5089431;28;20039;-69
2021/06/21 04:47:12;;;;;;;15.63;6.57;;;18.60;99.90;;;;;;5069257;28;20047;-69
2021/06/21 04:50:20;;;;;;;155.60;91.10;;;18.70;99.90;;;;;;5073129;28;20046;-69
2021/06/21 04:53:24;;;;;;;136.10;71.30;;;18.80;99.90;;;;;;5072410;28;20063;-69
2021/06/21 04:56:29;;;;;;;15.00;5.72;;;19.00;99.90;;;;;;5089931;28;20070;-69
2021/06/21 04:59:33;;;;;;;52.00;26.23;;;19.10;99.90;;;;;;5085484;28;20039;-68
2021/06/21 05:02:39;;;;;;;20.00;9.23;;;20.00;99.90;;;;;;5085339;28;20054;-68
2021/06/21 05:05:43;;;;;;;15.73;5.13;;;20.80;99.90;;;;;;5089220;28;20031;-69
2021/06/21 05:08:47;;;;;;;16.65;4.90;;;21.00;99.90;;;;;;5088623;28;20051;-69
2021/06/21 05:11:51;;;;;;;17.75;5.28;;;20.60;99.90;;;;;;5084247;28;20036;-69
2021/06/21 05:14:55;;;;;;;15.43;4.45;;;20.90;99.90;;;;;;5090752;28;20043;-69
2021/06/21 05:17:59;;;;;;;21.00;5.70;;;21.60;99.90;;;;;;5074732;28;20110;-69
2021/06/21 05:21:04;;;;;;;24.45;5.03;;;21.90;99.90;;;;;;5077496;28;20040;-70
2021/06/21 05:24:08;;;;;;;12.35;4.78;;;22.10;99.90;;;;;;5086455;28;20043;-69
2021/06/21 05:27:12;;;;;;;17.90;4.25;;;22.30;99.90;;;;;;5087569;28;20383;-69
2021/06/21 05:30:17;;;;;;;16.67;5.25;;;23.50;99.90;;;;;;5075492;28;20498;-69
2021/06/21 05:33:21;;;;;;;10.43;3.75;;;24.70;99.50;;;;;;5073021;28;20051;-69
2021/06/21 05:36:24;;;;;;;14.93;4.13;;;25.70;98.40;;;;;;5088424;28;20043;-68
2021/06/21 05:39:28;;;;;;;12.95;4.68;;;26.20;97.40;;;;;;5073466;28;20051;-69
2021/06/21 05:42:33;;;;;;;11.27;4.63;;;26.40;96.40;;;;;;5091109;28;20058;-69
2021/06/21 05:45:38;;;;;;;12.02;4.22;;;26.80;96.20;;;;;;5074965;28;20059;-69
2021/06/21 05:48:42;;;;;;;11.20;4.13;;;27.60;95.50;;;;;;5087364;28;20481;-69
2021/06/21 05:51:46;;;;;;;13.30;5.07;;;28.10;94.60;;;;;;5088912;28;20051;-69
2021/06/21 05:54:51;;;;;;;15.25;4.47;;;28.50;94.20;;;;;;5084699;28;20119;-68
2021/06/21 05:57:55;;;;;;;14.70;4.88;;;29.10;93.20;;;;;;5091476;28;20035;-68
2021/06/21 06:00:59;;;;;;;22.75;9.52;;;29.30;92.40;;;;;;5089344;28;20382;-68
2021/06/21 06:04:03;;;;;;;23.73;8.45;;;29.60;92.20;;;;;;5086130;28;20035;-68
2021/06/21 06:07:08;;;;;;;20.75;8.00;;;29.40;92.10;;;;;;5083895;28;20043;-69
2021/06/21 06:10:14;;;;;;;14.65;8.52;;;29.30;91.60;;;;;;5085763;28;20493;-68
2021/06/21 06:13:18;;;;;;;14.90;7.15;;;28.50;91.90;;;;;;5092307;28;20043;-69
2021/06/21 06:16:23;;;;;;;23.15;6.68;;;28.20;92.40;;;;;;5072839;28;20514;-68
2021/06/21 06:19:27;;;;;;;21.80;6.15;;;27.30;93.20;;;;;;5087166;28;20069;-68
2021/06/21 06:22:31;;;;;;;36.60;16.30;;;26.90;93.30;;;;;;5090867;28;20501;-68
2021/06/21 06:25:38;;;;;;;21.33;4.55;;;27.00;93.30;;;;;;5082728;28;20039;-68
2021/06/21 06:28:42;;;;;;;24.98;4.93;;;27.10;93.10;;;;;;5084779;28;20090;-68
2021/06/21 06:31:48;;;;;;;18.75;4.38;;;27.00;93.40;;;;;;5073222;28;20383;-68
2021/06/21 06:34:52;;;;;;;40.53;19.85;;;27.60;92.90;;;;;;5092442;28;20039;-68
2021/06/21 06:37:57;;;;;;;42.88;19.23;;;28.10;91.70;;;;;;5092147;28;20047;-68
2021/06/21 06:41:05;;;;;;;17.77;4.55;;;28.90;91.50;;;;;;5083976;28;20055;-68
2021/06/21 06:44:09;;;;;;;15.27;4.53;;;29.00;90.70;;;;;;5073414;28;20059;-68
2021/06/21 06:47:14;;;;;;;15.25;3.70;;;28.20;91.50;;;;;;5089715;28;20059;-69
2021/06/21 06:50:18;;;;;;;17.70;4.95;;;28.70;92.30;;;;;;5092387;28;20043;-68
2021/06/21 06:53:27;;;;;;;20.52;5.35;;;27.90;92.90;;;;;;5093788;28;20493;-68
2021/06/21 06:59:54;;;;;;;15.07;3.80;;;29.60;92.10;;;;;;5092809;28;20043;-69
2021/06/21 07:02:59;;;;;;;16.75;3.83;;;28.40;91.80;;;;;;5088256;28;20047;-68
2021/06/21 07:06:05;;;;;;;14.88;3.65;;;29.50;92.10;;;;;;5079839;28;20039;-68
2021/06/21 07:09:09;;;;;;;19.02;3.78;;;30.40;90.80;;;;;;5072698;28;20372;-68
2021/06/21 07:12:14;;;;;;;14.80;3.45;;;31.80;90.20;;;;;;5071067;28;20044;-68
2021/06/21 07:15:18;;;;;;;12.23;3.70;;;31.20;90.00;;;;;;5076977;28;20039;-69
2021/06/21 07:18:22;;;;;;;17.45;3.58;;;32.30;89.10;;;;;;5072188;28;20043;-69
2021/06/21 07:21:27;;;;;;;14.50;4.30;;;31.20;90.80;;;;;;5071429;28;20048;-69
2021/06/21 07:24:31;;;;;;;17.02;2.80;;;31.60;90.70;;;;;;5072839;28;20055;-69
2021/06/21 07:27:35;;;;;;;14.95;3.13;;;31.60;89.00;;;;;;5090719;28;20055;-68
2021/06/21 07:30:40;;;;;;;19.85;3.13;;;32.90;88.10;;;;;;5074690;28;20478;-68
2021/06/21 07:33:44;;;;;;;17.85;3.28;;;33.70;85.50;;;;;;5092479;28;20047;-68
2021/06/21 07:36:48;;;;;;;18.23;3.65;;;34.30;84.30;;;;;;5072238;28;20051;-68
2021/06/21 07:39:54;;;;;;;11.75;3.05;;;34.00;83.20;;;;;;5075396;28;20482;-68
2021/06/21 07:43:00;;;;;;;17.02;3.28;;;32.20;84.50;;;;;;5088477;28;20055;-67
2021/06/21 07:46:05;;;;;;;18.27;4.63;;;31.20;87.10;;;;;;5079885;28;20039;-67
2021/06/21 07:49:10;;;;;;;24.17;4.40;;;33.30;84.00;;;;;;5083959;28;20047;-68
2021/06/21 07:52:14;;;;;;;10.93;3.42;;;32.70;81.70;;;;;;5091609;28;20144;-67
2021/06/21 07:55:18;;;;;;;12.73;2.92;;;33.10;81.60;;;;;;5089953;28;20047;-68
2021/06/21 07:58:22;;;;;;;23.90;3.17;;;32.10;83.80;;;;;;5080799;28;20043;-67
2021/06/21 08:01:26;;;;;;;20.15;3.70;;;32.90;82.00;;;;;;5089386;28;20049;-68
2021/06/21 08:04:30;;;;;;;32.63;4.45;;;32.00;82.10;;;;;;5092415;28;20043;-68
2021/06/21 08:07:33;;;;;;;18.00;3.55;;;33.60;81.80;;;;;;5091395;28;20043;-68
2021/06/21 08:10:38;;;;;;;26.92;3.53;;;32.30;81.80;;;;;;5087964;28;20056;-68
2021/06/21 08:13:42;;;;;;;15.13;2.78;;;31.30;81.20;;;;;;5072283;28;20043;-68
2021/06/21 08:16:46;;;;;;;19.85;3.38;;;32.20;82.30;;;;;;5088585;28;20043;-67
2021/06/21 08:19:50;;;;;;;14.90;3.42;;;31.30;82.90;;;;;;5090869;28;20438;-68
2021/06/21 08:22:54;;;;;;;13.70;3.03;;;32.50;82.60;;;;;;5081910;28;20052;-68
2021/06/21 08:25:59;;;;;;;11.73;3.78;;;30.70;82.90;;;;;;5090820;28;20036;-68
2021/06/21 08:29:04;;;;;;;17.95;3.28;;;32.80;80.70;;;;;;5080459;28;20462;-68
2021/06/21 08:32:09;;;;;;;22.48;3.90;;;34.40;81.10;;;;;;5075382;28;20051;-68
2021/06/21 08:35:14;;;;;;;12.68;3.05;;;34.70;79.00;;;;;;5087896;28;20051;-68
2021/06/21 08:38:18;;;;;;;10.60;3.78;;;34.50;77.90;;;;;;5090556;28;20051;-68
2021/06/21 08:41:23;;;;;;;23.05;10.27;;;36.50;76.10;;;;;;5089093;28;20050;-68
2021/06/21 08:44:27;;;;;;;47.38;26.83;;;38.10;73.10;;;;;;5088425;28;20039;-68
2021/06/21 08:47:32;;;;;;;9.98;5.10;;;39.00;72.20;;;;;;5084347;28;20047;-68
2021/06/21 08:50:41;;;;;;;20.90;10.00;;;39.60;70.70;;;;;;5076606;28;20047;-67
2021/06/21 08:53:45;;;;;;;15.73;5.07;;;39.00;70.80;;;;;;5089739;28;20526;-68
2021/06/21 08:56:49;;;;;;;22.20;3.38;;;38.30;70.60;;;;;;5082494;28;20958;-67
2021/06/21 08:59:55;;;;;;;10.48;2.70;;;38.70;71.20;;;;;;5074924;28;20051;-68
2021/06/21 09:03:03;;;;;;;12.30;3.13;;;39.00;69.80;;;;;;5087981;28;20031;-69
2021/06/21 09:06:21;;;;;;;17.67;3.03;;;38.60;70.70;;;;;;5089239;28;20050;-68
2021/06/21 09:09:34;;;;;;;12.57;2.67;;;37.10;71.60;;;;;;5083852;28;20505;-68
2021/06/21 09:12:40;;;;;;;18.42;3.25;;;38.20;71.30;;;;;;5080678;28;20039;-68
2021/06/21 09:15:51;;;;;;;13.27;3.25;;;34.60;73.90;;;;;;5090842;28;20047;-67
2021/06/21 09:19:01;;;;;;;17.98;3.15;;;35.30;74.10;;;;;;5081544;28;20039;-68
2021/06/21 09:22:06;;;;;;;25.42;3.22;;;34.00;76.70;;;;;;5083206;28;20122;-68
2021/06/21 09:25:15;;;;;;;8.73;2.60;;;35.20;74.40;;;;;;5089600;28;20039;-68
2021/06/21 09:28:35;;;;;;;14.15;2.95;;;38.70;72.10;;;;;;5081420;28;20044;-68
2021/06/21 09:31:54;;;;;;;16.97;3.17;;;41.10;68.60;;;;;;5083284;28;20395;-69
2021/06/21 09:34:59;;;;;;;;;;;43.10;67.00;;;;;;5089763;28;20039;-69
2021/06/21 09:38:12;;;;;;;14.40;3.28;;;44.80;64.20;;;;;;5069693;28;19913;-66
2021/06/21 09:41:21;;;;;;;15.95;3.20;;;45.50;63.00;;;;;;5080393;28;20494;-66
2021/06/21 09:44:33;;;;;;;14.50;3.58;;;42.00;64.00;;;;;;5087930;28;20063;-68
2021/06/21 09:47:38;;;;;;;22.58;3.70;;;38.00;69.00;;;;;;5087449;28;20055;-67
2021/06/21 09:50:42;;;;;;;10.98;2.83;;;36.60;70.10;;;;;;5087381;28;20043;-67
2021/06/21 09:54:12;;;;;;;15.18;2.90;;;38.40;66.60;;;;;;5085351;28;20363;-68
2021/06/21 09:57:17;;;;;;;14.93;3.20;;;37.40;67.90;;;;;;5070208;28;20047;-68
2021/06/21 10:00:23;;;;;;;8.60;2.50;;;37.50;68.80;;;;;;5089355;28;20056;-67
2021/06/21 10:03:27;;;;;;;21.05;4.18;;;36.50;70.90;;;;;;5087843;28;20041;-68
2021/06/21 10:06:37;;;;;;;20.83;4.70;;;35.80;71.80;;;;;;5087275;28;20047;-67
2021/06/21 10:09:51;;;;;;;29.05;4.95;;;35.80;71.40;;;;;;5069981;28;20055;-67
2021/06/21 10:12:54;;;;;;;21.65;4.13;;;35.90;71.10;;;;;;5072531;28;20394;-68
2021/06/21 10:16:00;;;;;;;15.00;3.85;;;35.90;72.90;;;;;;5082213;28;20043;-67
2021/06/21 10:19:06;;;;;;;20.52;5.55;;;36.70;73.00;;;;;;5070045;28;20063;-67
2021/06/21 10:22:10;;;;;;;22.27;4.35;;;35.90;72.90;;;;;;5082045;28;20039;-68
2021/06/21 10:25:19;;;;;;;15.00;3.60;;;37.30;71.70;;;;;;5078015;28;20047;-66
2021/06/21 10:28:24;;;;;;;21.52;4.43;;;38.50;71.10;;;;;;5089015;28;20522;-67
2021/06/21 10:31:29;;;;;;;18.95;3.60;;;36.90;72.20;;;;;;5072348;28;20383;-68
2021/06/21 10:34:35;;;;;;;26.95;4.53;;;35.80;74.00;;;;;;5083793;28;20367;-68
2021/06/21 10:38:04;;;;;;;20.17;4.43;;;36.60;71.70;;;;;;5073427;28;20494;-68
2021/06/21 10:41:11;;;;;;;21.17;4.47;;;35.50;72.50;;;;;;5083565;28;20511;-69
2021/06/21 10:44:37;;;;;;;18.02;3.53;;;36.50;71.30;;;;;;5072567;28;20510;-70
2021/06/21 10:47:44;;;;;;;22.05;3.55;;;38.60;70.60;;;;;;5073264;28;20051;-68
2021/06/21 10:50:51;;;;;;;14.20;3.72;;;39.90;69.50;;;;;;5073213;28;20055;-69
2021/06/21 10:53:56;;;;;;;21.88;4.78;;;38.30;71.30;;;;;;5073512;28;20475;-67
2021/06/21 10:57:03;;;;;;;14.80;4.82;;;34.30;76.00;;;;;;5087505;28;20402;-68
2021/06/21 11:00:15;;;;;;;29.27;5.25;;;35.30;74.50;;;;;;5088134;28;20039;-66
2021/06/21 11:03:29;;;;;;;18.25;4.45;;;33.90;76.60;;;;;;5081173;28;20517;-69
2021/06/21 11:06:36;;;;;;;21.75;5.10;;;36.20;75.10;;;;;;5091449;28;20043;-68
2021/06/21 11:09:48;;;;;;;25.88;4.75;;;37.10;74.50;;;;;;5089981;28;20051;-68
2021/06/21 11:12:54;;;;;;;22.52;4.20;;;34.60;77.70;;;;;;5072798;28;20039;-67
2021/06/21 11:16:20;;;;;;;25.38;4.95;;;34.60;77.20;;;;;;5086129;28;20063;-69
2021/06/21 11:19:26;;;;;;;22.17;5.57;;;33.30;79.70;;;;;;5076533;28;20043;-69
2021/06/21 11:22:46;;;;;;;30.25;5.80;;;34.60;76.80;;;;;;5076547;28;20525;-69
2021/06/21 11:25:51;;;;;;;24.88;3.92;;;34.40;77.00;;;;;;5085070;28;20032;-69
2021/06/21 11:28:55;;;;;;;23.45;4.85;;;36.20;76.40;;;;;;5083550;28;20051;-69
2021/06/21 11:32:03;;;;;;;22.58;4.80;;;36.10;75.30;;;;;;5086927;28;20055;-67
2021/06/21 11:35:07;;;;;;;17.02;4.43;;;35.70;75.40;;;;;;5088696;28;20050;-68
2021/06/21 11:38:34;;;;;;;23.42;4.30;;;36.50;76.10;;;;;;5085600;28;20403;-69
2021/06/21 11:41:51;;;;;;;26.00;4.93;;;34.80;77.90;;;;;;5087885;28;20506;-69
2021/06/21 11:44:56;;;;;;;23.00;4.75;;;35.60;76.10;;;;;;5077257;28;20047;-68
2021/06/21 11:48:00;;;;;;;27.63;4.72;;;34.80;77.40;;;;;;5083450;28;20035;-68
2021/06/21 11:51:14;;;;;;;23.25;4.57;;;35.10;78.30;;;;;;5081212;28;20035;-67
2021/06/21 11:54:18;;;;;;;18.52;4.53;;;35.20;79.60;;;;;;5078221;28;20047;-67
2021/06/21 11:57:25;;;;;;;24.58;4.97;;;35.70;77.40;;;;;;5081208;28;20050;-68
2021/06/21 12:00:33;;;;;;;25.50;4.22;;;35.20;76.90;;;;;;5081616;28;20044;-69
2021/06/21 12:03:40;;;;;;;24.00;4.95;;;35.60;79.90;;;;;;5078916;28;20379;-67
2021/06/21 12:06:43;;;;;;;40.55;5.47;;;35.30;77.40;;;;;;5083153;28;20035;-67
2021/06/21 12:09:52;;;;;;;21.92;4.63;;;34.10;80.00;;;;;;5075499;28;20067;-68
2021/06/21 12:12:57;;;;;;;22.30;4.78;;;34.90;79.80;;;;;;5081698;28;20501;-66
2021/06/21 12:16:01;;;;;;;20.40;4.60;;;33.90;81.10;;;;;;5083461;28;20051;-70
2021/06/21 12:19:05;;;;;;;31.63;4.68;;;34.70;80.40;;;;;;5079751;28;20055;-68
2021/06/21 12:22:09;;;;;;;26.90;4.80;;;36.70;78.00;;;;;;5082472;28;20066;-70
2021/06/21 12:25:33;;;;;;;25.58;4.95;;;37.50;75.40;;;;;;5082899;28;20373;-69
2021/06/21 12:28:39;;;;;;;27.45;5.60;;;37.00;75.90;;;;;;5084554;28;20316;-67
2021/06/21 12:31:56;;;;;;;33.80;4.72;;;34.90;78.90;;;;;;5077934;28;20043;-68
2021/06/21 12:35:03;;;;;;;21.65;4.72;;;35.40;78.70;;;;;;5081765;28;20035;-68
2021/06/21 12:38:14;;;;;;;25.92;4.72;;;34.80;80.90;;;;;;5079409;28;20055;-69
2021/06/21 12:41:21;;;;;;;35.65;5.93;;;34.60;80.90;;;;;;5078197;28;20047;-67
2021/06/21 12:44:26;;;;;;;31.48;5.50;;;34.80;80.20;;;;;;5080599;28;20043;-68
2021/06/21 12:47:30;;;;;;;28.55;5.78;;;33.60;82.80;;;;;;5078588;28;20047;-68
2021/06/21 12:50:35;;;;;;;38.00;6.80;;;33.20;83.10;;;;;;5078000;28;20066;-67
2021/06/21 12:53:49;;;;;;;31.58;5.72;;;32.60;83.50;;;;;;5082345;28;20035;-67
2021/06/21 12:56:55;;;;;;;39.88;5.95;;;32.00;86.10;;;;;;5081047;28;20470;-68
2021/06/21 13:00:01;;;;;;;32.40;6.18;;;32.50;85.20;;;;;;5082917;28;20047;-68
2021/06/21 13:03:18;;;;;;;29.58;6.72;;;34.00;83.30;;;;;;5080071;28;20079;-66
2021/06/21 13:06:38;;;;;;;23.67;4.57;;;33.90;84.80;;;;;;5083206;28;20039;-68
2021/06/21 13:09:54;;;;;;;32.55;7.00;;;34.30;83.50;;;;;;5078802;28;20046;-67
2021/06/21 13:13:03;;;;;;;28.88;6.03;;;33.50;86.00;;;;;;5077546;28;20498;-68
2021/06/21 13:16:19;;;;;;;33.92;5.68;;;32.10;87.60;;;;;;5080328;28;20043;-67
2021/06/21 13:19:23;;;;;;;43.03;5.80;;;32.30;88.60;;;;;;5061606;28;20039;-68
2021/06/21 13:22:33;;;;;;;30.38;6.88;;;32.30;87.80;;;;;;5086715;28;20067;-68
2021/06/21 13:25:45;;;;;;;31.38;7.55;;;32.00;89.20;;;;;;5076154;28;20040;-67
2021/06/21 13:28:49;;;;;;;38.50;6.82;;;32.30;87.50;;;;;;5077076;28;20051;-68
2021/06/21 13:31:56;;;;;;;40.08;6.25;;;32.60;86.60;;;;;;5088171;28;20043;-67
2021/06/21 13:35:14;;;;;;;37.15;6.63;;;32.70;86.60;;;;;;5077884;28;20521;-68
2021/06/21 13:38:19;;;;;;;33.42;5.95;;;32.70;87.30;;;;;;5084905;28;20047;-68
2021/06/21 13:41:25;;;;;;;33.58;6.72;;;33.20;84.90;;;;;;5070432;28;20047;-68
2021/06/21 13:44:30;;;;;;;37.33;6.63;;;33.60;85.60;;;;;;5069678;28;20039;-68
2021/06/21 13:47:46;;;;;;;36.63;7.05;;;32.80;88.10;;;;;;5083461;28;20051;-67
2021/06/21 13:50:58;;;;;;;24.38;6.22;;;32.80;87.20;;;;;;5079007;28;20043;-68
2021/06/21 13:54:09;;;;;;;34.28;6.65;;;32.20;89.20;;;;;;5079666;28;20063;-68
2021/06/21 13:57:14;;;;;;;29.58;6.07;;;32.70;89.30;;;;;;5083415;28;20496;-68
2021/06/21 14:00:33;;;;;;;31.25;6.60;;;33.40;87.70;;;;;;5079914;28;20316;-67
2021/06/21 14:03:41;;;;;;;38.45;6.15;;;33.30;87.60;;;;;;5079396;28;20047;-68
2021/06/21 14:06:48;;;;;;;29.20;6.85;;;32.00;90.00;;;;;;5082706;28;20510;-68
2021/06/21 14:09:57;;;;;;;36.90;7.47;;;31.80;90.60;;;;;;5079170;28;20525;-68
2021/06/21 14:13:03;;;;;;;39.70;6.80;;;32.20;90.60;;;;;;5082745;28;20043;-68
2021/06/21 14:16:12;;;;;;;36.38;8.27;;;32.30;90.60;;;;;;5082101;28;20047;-67
2021/06/21 14:19:17;;;;;;;39.85;7.70;;;31.90;90.20;;;;;;5081467;28;20047;-68
2021/06/21 14:22:23;;;;;;;35.97;7.78;;;31.50;91.00;;;;;;5083788;28;20077;-67
2021/06/21 14:25:27;;;;;;;38.60;7.68;;;31.40;90.50;;;;;;5086635;28;20047;-66
2021/06/21 14:28:32;;;;;;;38.92;7.30;;;31.50;90.40;;;;;;5081802;28;20043;-67
2021/06/21 14:31:37;;;;;;;47.88;8.27;;;31.30;91.20;;;;;;5086087;28;20034;-66
2021/06/21 14:34:41;;;;;;;40.10;7.55;;;31.40;90.70;;;;;;5085076;28;20031;-68
2021/06/21 14:37:46;;;;;;;45.92;8.57;;;31.10;91.80;;;;;;5083653;28;20048;-67
2021/06/21 14:40:50;;;;;;;50.90;8.55;;;30.90;91.30;;;;;;5079025;28;20044;-66
2021/06/21 14:43:54;;;;;;;42.13;8.20;;;30.90;91.40;;;;;;5081907;28;20335;-67
2021/06/21 14:46:59;;;;;;;46.70;7.72;;;30.80;91.50;;;;;;5081886;28;20379;-65
2021/06/21 14:53:14;;;;;;;36.58;7.65;;;30.70;93.00;;;;;;5084805;28;20043;-68
2021/06/21 14:56:19;;;;;;;37.42;7.10;;;31.00;92.00;;;;;;5081732;28;20051;-68
2021/06/21 14:59:24;;;;;;;34.10;7.00;;;30.90;92.50;;;;;;5082396;28;20048;-67
2021/06/21 15:02:28;;;;;;;35.47;7.72;;;30.80;92.30;;;;;;5079938;28;20055;-67
2021/06/21 15:05:34;;;;;;;40.15;7.45;;;31.00;92.80;;;;;;5085568;28;20043;-66
2021/06/21 15:08:40;;;;;;;33.10;6.38;;;31.10;92.30;;;;;;5081087;28;20047;-69
2021/06/21 15:11:45;;;;;;;33.70;7.00;;;31.60;92.90;;;;;;5080817;28;20498;-68
2021/06/21 15:14:49;;;;;;;38.22;7.40;;;31.10;92.70;;;;;;5084073;28;20047;-68
2021/06/21 15:17:54;;;;;;;37.85;6.93;;;30.60;92.20;;;;;;5082490;28;20490;-68
2021/06/21 15:20:59;;;;;;;32.67;7.10;;;31.50;92.40;;;;;;5081946;28;20395;-68
2021/06/21 15:24:03;;;;;;;37.33;7.10;;;31.80;92.10;;;;;;5081813;28;20039;-68
2021/06/21 15:27:08;;;;;;;45.55;8.40;;;31.90;91.10;;;;;;5080553;28;20114;-68
2021/06/21 15:30:15;;;;;;;36.33;7.43;;;31.90;91.60;;;;;;5081572;28;20048;-67
2021/06/21 15:33:21;;;;;;;42.83;7.82;;;31.60;92.00;;;;;;5084654;28;20391;-68
2021/06/21 15:36:25;;;;;;;45.83;7.60;;;30.80;92.50;;;;;;5079365;28;20055;-68
2021/06/21 15:39:29;;;;;;;32.53;7.22;;;30.90;92.90;;;;;;5080833;28;20040;-67
2021/06/21 15:42:33;;;;;;;36.58;6.93;;;30.80;93.20;;;;;;5083878;28;20055;-67
2021/06/21 15:45:37;;;;;;;39.88;7.72;;;30.80;93.50;;;;;;5086242;28;20042;-68
2021/06/21 15:48:42;;;;;;;40.92;7.90;;;30.50;93.40;;;;;;5083891;28;20047;-68
2021/06/21 15:51:46;;;;;;;41.38;7.28;;;30.90;93.20;;;;;;5085438;28;20394;-68
2021/06/21 15:54:51;;;;;;;50.42;8.23;;;31.50;92.50;;;;;;5082207;28;20039;-68
2021/06/21 15:58:09;;;;;;;38.65;8.23;;;30.80;92.70;;;;;;5080141;28;20051;-68
2021/06/21 16:01:13;;;;;;;41.28;7.97;;;31.00;93.30;;;;;;5083514;28;20086;-67
2021/06/21 16:04:18;;;;;;;34.63;7.85;;;30.80;93.20;;;;;;5082827;28;20493;-66
2021/06/21 16:07:22;;;;;;;37.08;6.97;;;30.60;93.60;;;;;;5076782;28;20596;-67